sensor_id;sensor_type;location;lat;lon;timestamp;pressure;altitude;pressure_sealevel;temperature
80537;BMP280;69867;47.074;15.404;2024-02-21T00:00:39;98330.78;;;4.18
80537;BMP280;69867;47.074;15.404;2024-02-21T00:03:04;98325.56;;;4.12
80537;BMP280;69867;47.074;15.404;2024-02-21T00:05:30;98325.44;;;4.03
80537;BMP280;69867;47.074;15.404;2024-02-21T00:07:57;98332.22;;;3.98
80537;BMP280;69867;47.074;15.404;2024-02-21T00:10:22;98320.09;;;3.91
80537;BMP280;69867;47.074;15.404;2024-02-21T00:12:48;98319.97;;;3.85
80537;BMP280;69867;47.074;15.404;2024-02-21T00:15:13;98319.06;;;3.81
80537;BMP280;69867;47.074;15.404;2024-02-21T00:17:38;98313.03;;;3.79
80537;BMP280;69867;47.074;15.404;2024-02-21T00:20:04;98317.38;;;3.82
80537;BMP280;69867;47.074;15.404;2024-02-21T00:22:29;98318.19;;;3.79
80537;BMP280;69867;47.074;15.404;2024-02-21T00:24:55;98313.94;;;3.81
80537;BMP280;69867;47.074;15.404;2024-02-21T00:27:20;98313.94;;;3.83
80537;BMP280;69867;47.074;15.404;2024-02-21T00:29:45;98313.88;;;3.77
80537;BMP280;69867;47.074;15.404;2024-02-21T00:32:11;98307.94;;;3.81
80537;BMP280;69867;47.074;15.404;2024-02-21T00:34:36;98314.03;;;3.88
80537;BMP280;69867;47.074;15.404;2024-02-21T00:37:01;98312.31;;;3.88
80537;BMP280;69867;47.074;15.404;2024-02-21T00:39:27;98315.81;;;3.92
80537;BMP280;69867;47.074;15.404;2024-02-21T00:41:52;98305.59;;;3.95
80537;BMP280;69867;47.074;15.404;2024-02-21T00:44:18;98304.75;;;3.97
80537;BMP280;69867;47.074;15.404;2024-02-21T00:46:43;98305.72;;;4.04
80537;BMP280;69867;47.074;15.404;2024-02-21T00:49:08;98300.63;;;4.08
80537;BMP280;69867;47.074;15.404;2024-02-21T00:51:33;98305.06;;;4.18
80537;BMP280;69867;47.074;15.404;2024-02-21T00:53:59;98304.25;;;4.23
80537;BMP280;69867;47.074;15.404;2024-02-21T00:56:24;98300.84;;;4.24
80537;BMP280;69867;47.074;15.404;2024-02-21T00:58:49;98303.28;;;4.14
80537;BMP280;69867;47.074;15.404;2024-02-21T01:01:21;98298.19;;;4.17
80537;BMP280;69867;47.074;15.404;2024-02-21T01:03:47;98306.72;;;4.13
80537;BMP280;69867;47.074;15.404;2024-02-21T01:06:12;98307.50;;;4.09
80537;BMP280;69867;47.074;15.404;2024-02-21T01:08:37;98305.72;;;4.04
80537;BMP280;69867;47.074;15.404;2024-02-21T01:11:03;98304.75;;;3.97
80537;BMP280;69867;47.074;15.404;2024-02-21T01:13:28;98297.09;;;4.00
80537;BMP280;69867;47.074;15.404;2024-02-21T01:15:53;98291.19;;;4.07
80537;BMP280;69867;47.074;15.404;2024-02-21T01:18:19;98294.72;;;4.14
80537;BMP280;69867;47.074;15.404;2024-02-21T01:20:44;98297.34;;;4.18
80537;BMP280;69867;47.074;15.404;2024-02-21T01:23:09;98291.34;;;4.20
80537;BMP280;69867;47.074;15.404;2024-02-21T01:25:35;98298.25;;;4.24
80537;BMP280;69867;47.074;15.404;2024-02-21T01:28:00;98292.31;;;4.28
80537;BMP280;69867;47.074;15.404;2024-02-21T01:30:26;98291.50;;;4.30
80537;BMP280;69867;47.074;15.404;2024-02-21T01:32:51;98302.63;;;4.29
80537;BMP280;69867;47.074;15.404;2024-02-21T01:35:16;98280.34;;;4.31
80537;BMP280;69867;47.074;15.404;2024-02-21T01:37:42;98285.56;;;4.36
80537;BMP280;69867;47.074;15.404;2024-02-21T01:40:08;98288.13;;;4.36
80537;BMP280;69867;47.074;15.404;2024-02-21T01:42:38;98284.75;;;4.40
80537;BMP280;69867;47.074;15.404;2024-02-21T01:45:03;98280.44;;;4.37
80537;BMP280;69867;47.074;15.404;2024-02-21T01:47:29;98282.09;;;4.34
80537;BMP280;69867;47.074;15.404;2024-02-21T01:49:54;98282.06;;;4.32
80537;BMP280;69867;47.074;15.404;2024-02-21T01:52:20;98275.22;;;4.33
80537;BMP280;69867;47.074;15.404;2024-02-21T01:54:46;98273.53;;;4.35
80537;BMP280;69867;47.074;15.404;2024-02-21T01:57:12;98276.06;;;4.32
80537;BMP280;69867;47.074;15.404;2024-02-21T01:59:37;98264.06;;;4.31
80537;BMP280;69867;47.074;15.404;2024-02-21T02:02:03;98270.09;;;4.33
80537;BMP280;69867;47.074;15.404;2024-02-21T02:04:28;98261.47;;;4.31
80537;BMP280;69867;47.074;15.404;2024-02-21T02:06:54;98255.50;;;4.32
80537;BMP280;69867;47.074;15.404;2024-02-21T02:09:20;98255.53;;;4.35
80537;BMP280;69867;47.074;15.404;2024-02-21T02:11:45;98258.13;;;4.36
80537;BMP280;69867;47.074;15.404;2024-02-21T02:14:10;98243.56;;;4.40
80537;BMP280;69867;47.074;15.404;2024-02-21T02:16:35;98247.94;;;4.47
80537;BMP280;69867;47.074;15.404;2024-02-21T02:19:01;98254.78;;;4.45
80537;BMP280;69867;47.074;15.404;2024-02-21T02:21:30;98249.53;;;4.36
80537;BMP280;69867;47.074;15.404;2024-02-21T02:23:57;98239.28;;;4.39
80537;BMP280;69867;47.074;15.404;2024-02-21T02:26:24;98250.56;;;4.50
80537;BMP280;69867;47.074;15.404;2024-02-21T02:28:49;98253.94;;;4.46
80537;BMP280;69867;47.074;15.404;2024-02-21T02:31:14;98246.22;;;4.46
80537;BMP280;69867;47.074;15.404;2024-02-21T02:33:42;98249.63;;;4.45
80537;BMP280;69867;47.074;15.404;2024-02-21T02:36:08;98249.63;;;4.45
80537;BMP280;69867;47.074;15.404;2024-02-21T02:38:33;98245.41;;;4.50
80537;BMP280;69867;47.074;15.404;2024-02-21T02:40:58;98235.09;;;4.48
80537;BMP280;69867;47.074;15.404;2024-02-21T02:43:23;98242.00;;;4.51
80537;BMP280;69867;47.074;15.404;2024-02-21T02:45:49;98241.13;;;4.50
80537;BMP280;69867;47.074;15.404;2024-02-21T02:48:14;98245.44;;;4.53
80537;BMP280;69867;47.074;15.404;2024-02-21T02:50:39;98238.63;;;4.57
80537;BMP280;69867;47.074;15.404;2024-02-21T02:53:05;98231.69;;;4.51
80537;BMP280;69867;47.074;15.404;2024-02-21T02:55:30;98231.66;;;4.48
80537;BMP280;69867;47.074;15.404;2024-02-21T02:57:55;98240.22;;;4.47
80537;BMP280;69867;47.074;15.404;2024-02-21T03:00:21;98234.19;;;4.45
80537;BMP280;69867;47.074;15.404;2024-02-21T03:02:48;98223.91;;;4.46
80537;BMP280;69867;47.074;15.404;2024-02-21T03:05:18;98227.44;;;4.55
80537;BMP280;69867;47.074;15.404;2024-02-21T03:07:44;98224.06;;;4.60
80537;BMP280;69867;47.074;15.404;2024-02-21T03:10:10;98221.50;;;4.60
80537;BMP280;69867;47.074;15.404;2024-02-21T03:12:36;98224.03;;;4.57
80537;BMP280;69867;47.074;15.404;2024-02-21T03:15:02;98220.66;;;4.63
80537;BMP280;69867;47.074;15.404;2024-02-21T03:17:28;98220.69;;;4.66
80537;BMP280;69867;47.074;15.404;2024-02-21T03:19:53;98224.91;;;4.59
80537;BMP280;69867;47.074;15.404;2024-02-21T03:22:19;98217.22;;;4.61
80537;BMP280;69867;47.074;15.404;2024-02-21T03:24:44;98220.59;;;4.57
80537;BMP280;69867;47.074;15.404;2024-02-21T03:27:10;98218.88;;;4.57
80537;BMP280;69867;47.074;15.404;2024-02-21T03:29:35;98225.75;;;4.57
80537;BMP280;69867;47.074;15.404;2024-02-21T03:32:00;98224.91;;;4.59
80537;BMP280;69867;47.074;15.404;2024-02-21T03:34:25;98223.25;;;4.64
80537;BMP280;69867;47.074;15.404;2024-02-21T03:36:51;98224.94;;;4.62
80537;BMP280;69867;47.074;15.404;2024-02-21T03:39:16;98218.97;;;4.66
80537;BMP280;69867;47.074;15.404;2024-02-21T03:41:41;98230.19;;;4.70
80537;BMP280;69867;47.074;15.404;2024-02-21T03:44:07;98223.31;;;4.70
80537;BMP280;69867;47.074;15.404;2024-02-21T03:46:32;98221.59;;;4.71
80537;BMP280;69867;47.074;15.404;2024-02-21T03:48:58;98217.34;;;4.73
80537;BMP280;69867;47.074;15.404;2024-02-21T03:51:23;98209.63;;;4.74
80537;BMP280;69867;47.074;15.404;2024-02-21T03:53:48;98208.72;;;4.71
80537;BMP280;69867;47.074;15.404;2024-02-21T03:56:14;98210.44;;;4.69
80537;BMP280;69867;47.074;15.404;2024-02-21T03:58:39;98214.69;;;4.65
80537;BMP280;69867;47.074;15.404;2024-02-21T04:01:04;98205.19;;;4.61
80537;BMP280;69867;47.074;15.404;2024-02-21T04:03:30;98210.31;;;4.58
80537;BMP280;69867;47.074;15.404;2024-02-21T04:05:56;98211.13;;;4.53
80537;BMP280;69867;47.074;15.404;2024-02-21T04:08:22;98209.38;;;4.52
80537;BMP280;69867;47.074;15.404;2024-02-21T04:10:48;98205.09;;;4.50
80537;BMP280;69867;47.074;15.404;2024-02-21T04:13:13;98210.22;;;4.47
80537;BMP280;69867;47.074;15.404;2024-02-21T04:15:39;98215.38;;;4.49
80537;BMP280;69867;47.074;15.404;2024-02-21T04:18:04;98208.53;;;4.51
80537;BMP280;69867;47.074;15.404;2024-02-21T04:20:29;98211.03;;;4.45
80537;BMP280;69867;47.074;15.404;2024-02-21T04:22:55;98209.28;;;4.41
80537;BMP280;69867;47.074;15.404;2024-02-21T04:25:20;98204.09;;;4.39
80537;BMP280;69867;47.074;15.404;2024-02-21T04:27:46;98201.47;;;4.33
80537;BMP280;69867;47.074;15.404;2024-02-21T04:30:11;98203.13;;;4.28
80537;BMP280;69867;47.074;15.404;2024-02-21T04:32:37;98201.41;;;4.27
80537;BMP280;69867;47.074;15.404;2024-02-21T04:35:02;98202.25;;;4.26
80537;BMP280;69867;47.074;15.404;2024-02-21T04:37:28;98207.41;;;4.28
80537;BMP280;69867;47.074;15.404;2024-02-21T04:39:53;98207.38;;;4.25
80537;BMP280;69867;47.074;15.404;2024-02-21T04:42:19;98201.38;;;4.24
80537;BMP280;69867;47.074;15.404;2024-02-21T04:44:44;98196.25;;;4.26
80537;BMP280;69867;47.074;15.404;2024-02-21T04:47:09;98192.78;;;4.22
80537;BMP280;69867;47.074;15.404;2024-02-21T04:49:35;98195.25;;;4.14
80537;BMP280;69867;47.074;15.404;2024-02-21T04:52:00;98193.50;;;4.10
80537;BMP280;69867;47.074;15.404;2024-02-21T04:54:26;98191.81;;;4.12
80537;BMP280;69867;47.074;15.404;2024-02-21T04:56:52;98190.88;;;4.07
80537;BMP280;69867;47.074;15.404;2024-02-21T04:59:17;98199.53;;;4.14
80537;BMP280;69867;47.074;15.404;2024-02-21T05:01:43;98191.84;;;4.15
80537;BMP280;69867;47.074;15.404;2024-02-21T05:04:08;98186.72;;;4.18
80537;BMP280;69867;47.074;15.404;2024-02-21T05:06:43;98197.06;;;4.22
80537;BMP280;69867;47.074;15.404;2024-02-21T05:09:09;98191.84;;;4.15
80537;BMP280;69867;47.074;15.404;2024-02-21T05:11:35;98193.56;;;4.16
80537;BMP280;69867;47.074;15.404;2024-02-21T05:14:00;98195.19;;;4.08
80537;BMP280;69867;47.074;15.404;2024-02-21T05:16:26;98193.38;;;4.01
80537;BMP280;69867;47.074;15.404;2024-02-21T05:18:51;98191.59;;;3.94
80537;BMP280;69867;47.074;15.404;2024-02-21T05:21:16;98188.91;;;3.90
80537;BMP280;69867;47.074;15.404;2024-02-21T05:23:42;98186.41;;;3.91
80537;BMP280;69867;47.074;15.404;2024-02-21T05:26:07;98193.16;;;3.86
80537;BMP280;69867;47.074;15.404;2024-02-21T05:28:33;98194.88;;;3.85
80537;BMP280;69867;47.074;15.404;2024-02-21T05:30:58;98191.44;;;3.85
80537;BMP280;69867;47.074;15.404;2024-02-21T05:33:24;98187.97;;;3.83
80537;BMP280;69867;47.074;15.404;2024-02-21T05:35:49;98182.75;;;3.77
80537;BMP280;69867;47.074;15.404;2024-02-21T05:38:15;98185.25;;;3.71
80537;BMP280;69867;47.074;15.404;2024-02-21T05:40:40;98180.13;;;3.72
80537;BMP280;69867;47.074;15.404;2024-02-21T05:43:07;98181.00;;;3.73
80537;BMP280;69867;47.074;15.404;2024-02-21T05:45:33;98187.81;;;3.71
80537;BMP280;69867;47.074;15.404;2024-02-21T05:47:58;98191.19;;;3.67
80537;BMP280;69867;47.074;15.404;2024-02-21T05:50:24;98192.06;;;3.67
80537;BMP280;69867;47.074;15.404;2024-02-21T05:52:54;98187.72;;;3.65
80537;BMP280;69867;47.074;15.404;2024-02-21T05:55:19;98187.72;;;3.65
80537;BMP280;69867;47.074;15.404;2024-02-21T05:57:45;98187.72;;;3.65
80537;BMP280;69867;47.074;15.404;2024-02-21T06:00:10;98192.06;;;3.67
80537;BMP280;69867;47.074;15.404;2024-02-21T06:02:36;98187.78;;;3.68
80537;BMP280;69867;47.074;15.404;2024-02-21T06:05:01;98196.34;;;3.67
80537;BMP280;69867;47.074;15.404;2024-02-21T06:07:26;98180.03;;;3.66
80537;BMP280;69867;47.074;15.404;2024-02-21T06:09:52;98183.50;;;3.68
80537;BMP280;69867;47.074;15.404;2024-02-21T06:12:17;98175.69;;;3.61
80537;BMP280;69867;47.074;15.404;2024-02-21T06:14:42;98177.41;;;3.62
80537;BMP280;69867;47.074;15.404;2024-02-21T06:17:08;98180.78;;;3.58
80537;BMP280;69867;47.074;15.404;2024-02-21T06:19:33;98174.69;;;3.51
80537;BMP280;69867;47.074;15.404;2024-02-21T06:21:58;98172.09;;;3.49
80537;BMP280;69867;47.074;15.404;2024-02-21T06:24:24;98168.78;;;3.57
80537;BMP280;69867;47.074;15.404;2024-02-21T06:26:49;98164.59;;;3.63
80537;BMP280;69867;47.074;15.404;2024-02-21T06:29:14;98169.81;;;3.71
80537;BMP280;69867;47.074;15.404;2024-02-21T06:31:40;98166.53;;;3.81
80537;BMP280;69867;47.074;15.404;2024-02-21T06:34:05;98172.72;;;3.95
80537;BMP280;69867;47.074;15.404;2024-02-21T06:36:31;98177.19;;;4.08
80537;BMP280;69867;47.074;15.404;2024-02-21T06:38:56;98186.75;;;4.22
80537;BMP280;69867;47.074;15.404;2024-02-21T06:41:21;98180.81;;;4.27
80537;BMP280;69867;47.074;15.404;2024-02-21T06:43:47;98183.44;;;4.30
80537;BMP280;69867;47.074;15.404;2024-02-21T06:46:23;98192.03;;;4.34
80537;BMP280;69867;47.074;15.404;2024-02-21T06:48:48;98188.59;;;4.32
80537;BMP280;69867;47.074;15.404;2024-02-21T06:51:14;98192.06;;;4.37
80537;BMP280;69867;47.074;15.404;2024-02-21T06:53:39;98193.88;;;4.44
80537;BMP280;69867;47.074;15.404;2024-02-21T06:56:04;98202.56;;;4.55
80537;BMP280;69867;47.074;15.404;2024-02-21T06:58:30;98201.75;;;4.61
80537;BMP280;69867;47.074;15.404;2024-02-21T07:00:55;98202.75;;;4.73
80537;BMP280;69867;47.074;15.404;2024-02-21T07:03:20;98197.66;;;4.79
80537;BMP280;69867;47.074;15.404;2024-02-21T07:05:46;98200.31;;;4.89
80537;BMP280;69867;47.074;15.404;2024-02-21T07:08:11;98191.81;;;4.97
80537;BMP280;69867;47.074;15.404;2024-02-21T07:10:36;98201.34;;;5.09
80537;BMP280;69867;47.074;15.404;2024-02-21T07:13:02;98208.94;;;4.94
80537;BMP280;69867;47.074;15.404;2024-02-21T07:15:27;98191.72;;;4.90
80537;BMP280;69867;47.074;15.404;2024-02-21T07:17:52;98202.91;;;4.92
80537;BMP280;69867;47.074;15.404;2024-02-21T07:20:18;98199.47;;;4.90
80537;BMP280;69867;47.074;15.404;2024-02-21T07:22:43;98194.34;;;4.93
80537;BMP280;69867;47.074;15.404;2024-02-21T07:25:09;98194.44;;;5.05
80537;BMP280;69867;47.074;15.404;2024-02-21T07:27:34;98192.78;;;5.13
80537;BMP280;69867;47.074;15.404;2024-02-21T07:29:59;98180.88;;;5.24
80537;BMP280;69867;47.074;15.404;2024-02-21T07:32:25;98186.13;;;5.36
80537;BMP280;69867;47.074;15.404;2024-02-21T07:34:50;98175.00;;;5.45
80537;BMP280;69867;47.074;15.404;2024-02-21T07:37:15;98174.19;;;5.54
80537;BMP280;69867;47.074;15.404;2024-02-21T07:39:41;98176.84;;;5.64
80537;BMP280;69867;47.074;15.404;2024-02-21T07:42:06;98166.59;;;5.76
80537;BMP280;69867;47.074;15.404;2024-02-21T07:44:32;98172.63;;;5.83
80537;BMP280;69867;47.074;15.404;2024-02-21T07:46:57;98172.72;;;5.91
80537;BMP280;69867;47.074;15.404;2024-02-21T07:49:23;98166.75;;;6.05
80537;BMP280;69867;47.074;15.404;2024-02-21T07:51:48;98159.91;;;6.14
80537;BMP280;69867;47.074;15.404;2024-02-21T07:54:13;98154.78;;;6.26
80537;BMP280;69867;47.074;15.404;2024-02-21T07:56:38;98151.34;;;6.33
80537;BMP280;69867;47.074;15.404;2024-02-21T07:59:04;98147.03;;;6.27
80537;BMP280;69867;47.074;15.404;2024-02-21T08:01:29;98149.63;;;6.35
80537;BMP280;69867;47.074;15.404;2024-02-21T08:03:54;98147.06;;;6.42
80537;BMP280;69867;47.074;15.404;2024-02-21T08:06:20;98139.38;;;6.61
80537;BMP280;69867;47.074;15.404;2024-02-21T08:08:45;98146.28;;;6.83
80537;BMP280;69867;47.074;15.404;2024-02-21T08:11:10;98141.13;;;6.97
80537;BMP280;69867;47.074;15.404;2024-02-21T08:13:36;98138.53;;;7.17
80537;BMP280;69867;47.074;15.404;2024-02-21T08:16:01;98130.75;;;7.35
80537;BMP280;69867;47.074;15.404;2024-02-21T08:18:26;98132.47;;;7.42
80537;BMP280;69867;47.074;15.404;2024-02-21T08:20:52;98135.03;;;7.48
80537;BMP280;69867;47.074;15.404;2024-02-21T08:23:18;98135.03;;;7.47
80537;BMP280;69867;47.074;15.404;2024-02-21T08:25:44;98134.16;;;7.46
80537;BMP280;69867;47.074;15.404;2024-02-21T08:28:09;98130.72;;;7.39
80537;BMP280;69867;47.074;15.404;2024-02-21T08:30:36;98130.75;;;7.33
80537;BMP280;69867;47.074;15.404;2024-02-21T08:33:02;98126.44;;;7.31
80537;BMP280;69867;47.074;15.404;2024-02-21T08:35:27;98120.41;;;7.29
80537;BMP280;69867;47.074;15.404;2024-02-21T08:37:52;98128.16;;;7.30
80537;BMP280;69867;47.074;15.404;2024-02-21T08:40:18;98128.19;;;7.27
80537;BMP280;69867;47.074;15.404;2024-02-21T08:42:43;98122.16;;;7.27
80537;BMP280;69867;47.074;15.404;2024-02-21T08:45:09;98119.56;;;7.25
80537;BMP280;69867;47.074;15.404;2024-02-21T08:47:35;98117.84;;;7.24
80537;BMP280;69867;47.074;15.404;2024-02-21T08:50:01;98124.75;;;7.13
80537;BMP280;69867;47.074;15.404;2024-02-21T08:52:26;98124.75;;;7.13
80537;BMP280;69867;47.074;15.404;2024-02-21T08:54:51;98119.56;;;7.22
80537;BMP280;69867;47.074;15.404;2024-02-21T08:57:17;98121.28;;;7.29
80537;BMP280;69867;47.074;15.404;2024-02-21T08:59:42;98112.63;;;7.39
80537;BMP280;69867;47.074;15.404;2024-02-21T09:02:07;98115.19;;;7.52
80537;BMP280;69867;47.074;15.404;2024-02-21T09:04:33;98106.53;;;7.65
80537;BMP280;69867;47.074;15.404;2024-02-21T09:06:59;98107.34;;;7.79
80537;BMP280;69867;47.074;15.404;2024-02-21T09:09:24;98103.88;;;7.89
80537;BMP280;69867;47.074;15.404;2024-02-21T09:11:49;98104.66;;;8.05
80537;BMP280;69867;47.074;15.404;2024-02-21T09:14:15;98095.97;;;8.18
80537;BMP280;69867;47.074;15.404;2024-02-21T09:16:40;98101.09;;;8.33
80537;BMP280;69867;47.074;15.404;2024-02-21T09:19:05;98101.81;;;8.52
80537;BMP280;69867;47.074;15.404;2024-02-21T09:21:31;98090.47;;;8.70
80537;BMP280;69867;47.074;15.404;2024-02-21T09:23:56;98088.56;;;8.90
80537;BMP280;69867;47.074;15.404;2024-02-21T09:26:21;98080.75;;;8.95
80537;BMP280;69867;47.074;15.404;2024-02-21T09:28:47;98082.34;;;9.11
80537;BMP280;69867;47.074;15.404;2024-02-21T09:31:12;98083.88;;;9.32
80537;BMP280;69867;47.074;15.404;2024-02-21T09:33:38;98080.34;;;9.38
80537;BMP280;69867;47.074;15.404;2024-02-21T09:36:04;98071.56;;;9.51
80537;BMP280;69867;47.074;15.404;2024-02-21T09:38:29;98073.13;;;9.64
80537;BMP280;69867;47.074;15.404;2024-02-21T09:41:00;98075.56;;;9.78
80537;BMP280;69867;47.074;15.404;2024-02-21T09:43:29;98066.81;;;9.85
80537;BMP280;69867;47.074;15.404;2024-02-21T09:45:55;98066.72;;;9.92
80537;BMP280;69867;47.074;15.404;2024-02-21T09:51:09;98055.25;;;10.09
80537;BMP280;69867;47.074;15.404;2024-02-21T09:53:37;98053.44;;;10.14
80537;BMP280;69867;47.074;15.404;2024-02-21T09:56:04;98055.13;;;10.21
80537;BMP280;69867;47.074;15.404;2024-02-21T09:58:30;98054.34;;;10.13
80537;BMP280;69867;47.074;15.404;2024-02-21T10:00:55;98056.84;;;10.22
80537;BMP280;69867;47.074;15.404;2024-02-21T10:03:21;98056.81;;;10.23
80537;BMP280;69867;47.074;15.404;2024-02-21T10:05:48;98044.72;;;10.19
80537;BMP280;69867;47.074;15.404;2024-02-21T10:08:14;98048.34;;;10.08
80537;BMP280;69867;47.074;15.404;2024-02-21T10:10:44;98046.66;;;10.05
80537;BMP280;69867;47.074;15.404;2024-02-21T10:13:10;98048.50;;;9.95
80537;BMP280;69867;47.074;15.404;2024-02-21T10:15:36;98052.03;;;9.91
80537;BMP280;69867;47.074;15.404;2024-02-21T10:18:02;98045.97;;;9.92
80537;BMP280;69867;47.074;15.404;2024-02-21T10:20:27;98045.03;;;9.97
80537;BMP280;69867;47.074;15.404;2024-02-21T10:23:03;98037.09;;;10.07
80537;BMP280;69867;47.074;15.404;2024-02-21T10:25:29;98029.19;;;10.15
80537;BMP280;69867;47.074;15.404;2024-02-21T10:27:54;98033.47;;;10.22
80537;BMP280;69867;47.074;15.404;2024-02-21T10:30:19;98021.28;;;10.25
80537;BMP280;69867;47.074;15.404;2024-02-21T10:32:52;98026.38;;;10.33
80537;BMP280;69867;47.074;15.404;2024-02-21T10:37:52;98016.94;;;10.26
80537;BMP280;69867;47.074;15.404;2024-02-21T10:40:17;98014.34;;;10.26
80537;BMP280;69867;47.074;15.404;2024-02-21T10:42:43;98011.84;;;10.20
80537;BMP280;69867;47.074;15.404;2024-02-21T10:45:09;97998.97;;;10.09
80537;BMP280;69867;47.074;15.404;2024-02-21T10:47:36;97999.09;;;10.02
80537;BMP280;69867;47.074;15.404;2024-02-21T10:50:03;97993.88;;;10.03
80537;BMP280;69867;47.074;15.404;2024-02-21T10:55:41;97973.88;;;10.10
80537;BMP280;69867;47.074;15.404;2024-02-21T10:58:09;97974.63;;;10.16
80537;BMP280;69867;47.074;15.404;2024-02-21T11:00:35;97972.88;;;10.20
80537;BMP280;69867;47.074;15.404;2024-02-21T11:03:01;97965.84;;;10.26
80537;BMP280;69867;47.074;15.404;2024-02-21T11:05:28;97965.75;;;10.33
80537;BMP280;69867;47.074;15.404;2024-02-21T11:07:53;97964.78;;;10.41
80537;BMP280;69867;47.074;15.404;2024-02-21T11:10:26;97955.16;;;10.46
80537;BMP280;69867;47.074;15.404;2024-02-21T11:13:10;97947.31;;;10.49
80537;BMP280;69867;47.074;15.404;2024-02-21T11:15:36;97949.88;;;10.52
80537;BMP280;69867;47.074;15.404;2024-02-21T11:18:01;97945.59;;;10.48
80537;BMP280;69867;47.074;15.404;2024-02-21T11:20:34;97943.88;;;10.47
80537;BMP280;69867;47.074;15.404;2024-02-21T11:22:59;97933.44;;;10.50
80537;BMP280;69867;47.074;15.404;2024-02-21T11:25:25;97933.28;;;10.60
80537;BMP280;69867;47.074;15.404;2024-02-21T11:28:02;97926.09;;;10.74
80537;BMP280;69867;47.074;15.404;2024-02-21T11:30:29;97921.59;;;10.82
80537;BMP280;69867;47.074;15.404;2024-02-21T11:33:06;97907.72;;;10.83
80537;BMP280;69867;47.074;15.404;2024-02-21T11:35:35;97911.09;;;10.88
80537;BMP280;69867;47.074;15.404;2024-02-21T11:38:10;97901.38;;;10.98
80537;BMP280;69867;47.074;15.404;2024-02-21T11:40:38;97884.63;;;11.11
80537;BMP280;69867;47.074;15.404;2024-02-21T11:43:04;97881.59;;;11.31
80537;BMP280;69867;47.074;15.404;2024-02-21T11:45:29;97878.59;;;11.49
80537;BMP280;69867;47.074;15.404;2024-02-21T11:47:54;97870.31;;;11.70
80537;BMP280;69867;47.074;15.404;2024-02-21T11:50:24;97868.84;;;11.97
80537;BMP280;69867;47.074;15.404;2024-02-21T11:52:49;97852.88;;;12.11
80537;BMP280;69867;47.074;15.404;2024-02-21T11:55:14;97837.22;;;12.12
80537;BMP280;69867;47.074;15.404;2024-02-21T11:57:40;97844.06;;;12.16
80537;BMP280;69867;47.074;15.404;2024-02-21T12:00:20;97835.38;;;12.16
80537;BMP280;69867;47.074;15.404;2024-02-21T12:02:46;97842.09;;;12.25
80537;BMP280;69867;47.074;15.404;2024-02-21T12:05:12;97847.03;;;12.35
80537;BMP280;69867;47.074;15.404;2024-02-21T12:07:38;97837.22;;;12.45
80537;BMP280;69867;47.074;15.404;2024-02-21T12:10:08;97831.81;;;12.53
80537;BMP280;69867;47.074;15.404;2024-02-21T12:12:33;97835.06;;;12.61
80537;BMP280;69867;47.074;15.404;2024-02-21T12:14:58;97828.44;;;12.80
80537;BMP280;69867;47.074;15.404;2024-02-21T12:17:24;97829.84;;;12.92
80537;BMP280;69867;47.074;15.404;2024-02-21T12:19:50;97818.03;;;13.09
80537;BMP280;69867;47.074;15.404;2024-02-21T12:22:19;97807.94;;;12.97
80537;BMP280;69867;47.074;15.404;2024-02-21T12:24:44;97806.41;;;12.90
80537;BMP280;69867;47.074;15.404;2024-02-21T12:27:09;97801.88;;;12.97
80537;BMP280;69867;47.074;15.404;2024-02-21T12:29:35;97796.53;;;13.01
80537;BMP280;69867;47.074;15.404;2024-02-21T12:32:00;97791.22;;;13.04
80537;BMP280;69867;47.074;15.404;2024-02-21T12:34:25;97779.44;;;12.91
80537;BMP280;69867;47.074;15.404;2024-02-21T12:36:51;97781.25;;;12.88
80537;BMP280;69867;47.074;15.404;2024-02-21T12:39:16;97778.75;;;12.85
80537;BMP280;69867;47.074;15.404;2024-02-21T12:41:42;97775.47;;;12.78
80537;BMP280;69867;47.074;15.404;2024-02-21T12:44:07;97772.31;;;12.67
80537;BMP280;69867;47.074;15.404;2024-02-21T12:46:34;97773.03;;;12.41
80537;BMP280;69867;47.074;15.404;2024-02-21T12:49:00;97778.22;;;12.42
80537;BMP280;69867;47.074;15.404;2024-02-21T12:51:25;97774.03;;;12.37
80537;BMP280;69867;47.074;15.404;2024-02-21T12:53:51;97767.97;;;12.36
80537;BMP280;69867;47.074;15.404;2024-02-21T12:56:16;97773.91;;;12.41
80537;BMP280;69867;47.074;15.404;2024-02-21T12:58:42;97764.13;;;12.49
80537;BMP280;69867;47.074;15.404;2024-02-21T13:01:07;97759.72;;;12.52
80537;BMP280;69867;47.074;15.404;2024-02-21T13:03:33;97755.22;;;12.57
80537;BMP280;69867;47.074;15.404;2024-02-21T13:05:58;97753.53;;;12.56
80537;BMP280;69867;47.074;15.404;2024-02-21T13:08:23;97748.09;;;12.63
80537;BMP280;69867;47.074;15.404;2024-02-21T13:10:49;97747.78;;;12.74
80537;BMP280;69867;47.074;15.404;2024-02-21T13:13:15;97745.78;;;12.82
80537;BMP280;69867;47.074;15.404;2024-02-21T13:15:40;97741.91;;;12.95
80537;BMP280;69867;47.074;15.404;2024-02-21T13:18:05;97727.63;;;13.08
80537;BMP280;69867;47.074;15.404;2024-02-21T13:20:31;97726.31;;;13.23
80537;BMP280;69867;47.074;15.404;2024-02-21T13:22:56;97724.41;;;13.28
80537;BMP280;69867;47.074;15.404;2024-02-21T13:25:21;97723.56;;;13.28
80537;BMP280;69867;47.074;15.404;2024-02-21T13:27:47;97723.16;;;13.40
80537;BMP280;69867;47.074;15.404;2024-02-21T13:30:13;97717.91;;;13.41
80537;BMP280;69867;47.074;15.404;2024-02-21T13:32:38;97711.81;;;13.41
80537;BMP280;69867;47.074;15.404;2024-02-21T13:35:04;97706.50;;;13.44
80537;BMP280;69867;47.074;15.404;2024-02-21T13:37:29;97705.56;;;13.47
80537;BMP280;69867;47.074;15.404;2024-02-21T13:39:55;97704.50;;;13.52
80537;BMP280;69867;47.074;15.404;2024-02-21T13:42:20;97697.38;;;13.57
80537;BMP280;69867;47.074;15.404;2024-02-21T13:44:46;97697.16;;;13.63
80537;BMP280;69867;47.074;15.404;2024-02-21T13:47:14;97695.94;;;13.73
80537;BMP280;69867;47.074;15.404;2024-02-21T13:49:40;97693.47;;;13.69
80537;BMP280;69867;47.074;15.404;2024-02-21T13:52:06;97694.22;;;13.72
80537;BMP280;69867;47.074;15.404;2024-02-21T13:54:31;97698.44;;;13.76
80537;BMP280;69867;47.074;15.404;2024-02-21T13:56:57;97692.53;;;13.71
80537;BMP280;69867;47.074;15.404;2024-02-21T13:59:22;97683.16;;;13.66
80537;BMP280;69867;47.074;15.404;2024-02-21T14:01:47;97671.75;;;13.68
80537;BMP280;69867;47.074;15.404;2024-02-21T14:04:13;97673.66;;;13.63